createdAt,value
2019-03-23T00:00:32.787Z,7.77
2019-03-23T00:03:05.034Z,7.71
2019-03-23T00:05:36.318Z,7.71
2019-03-23T00:08:10.875Z,7.67
2019-03-23T00:10:41.743Z,7.73
2019-03-23T00:13:12.443Z,7.73
2019-03-23T00:15:43.564Z,7.72
2019-03-23T00:18:13.614Z,7.47
2019-03-23T00:20:45.032Z,7.47
2019-03-23T00:23:16.910Z,7.48
2019-03-23T00:25:48.116Z,7.47
2019-03-23T00:28:21.691Z,7.38
2019-03-23T00:30:52.105Z,7.34
2019-03-23T00:33:23.237Z,7.30
2019-03-23T00:35:56.248Z,7.23
2019-03-23T00:38:26.455Z,7.20
2019-03-23T00:40:58.529Z,7.06
2019-03-23T00:43:30.623Z,7.09
2019-03-23T00:46:00.702Z,7.14
2019-03-23T00:48:31.482Z,7.03
2019-03-23T00:51:02.424Z,6.96
2019-03-23T00:53:36.026Z,6.97
2019-03-23T00:56:07.941Z,6.85
2019-03-23T00:58:38.491Z,6.95
2019-03-23T01:01:09.442Z,7.00
2019-03-23T01:03:40.483Z,6.86
2019-03-23T01:06:12.248Z,6.78
2019-03-23T01:08:43.857Z,6.85
2019-03-23T01:11:14.849Z,6.69
2019-03-23T01:13:45.157Z,6.80
2019-03-23T01:16:16.972Z,6.85
2019-03-23T01:18:50.693Z,6.68
2019-03-23T01:21:21.763Z,6.82
2019-03-23T01:23:52.880Z,6.88
2019-03-23T01:26:26.058Z,6.75
2019-03-23T01:28:56.235Z,6.75
2019-03-23T01:31:27.822Z,6.91
2019-03-23T01:34:01.924Z,6.79
2019-03-23T01:36:34.594Z,6.98
2019-03-23T01:39:05.999Z,6.92
2019-03-23T01:41:37.093Z,6.95
2019-03-23T01:44:07.613Z,6.98
2019-03-23T01:46:39.127Z,6.69
2019-03-23T01:49:13.901Z,6.54
2019-03-23T01:51:43.859Z,6.63
2019-03-23T01:54:17.337Z,6.75
2019-03-23T01:56:48.803Z,6.72
2019-03-23T01:59:20.544Z,6.50
2019-03-23T02:01:54.053Z,6.56
2019-03-23T02:04:24.495Z,6.46
2019-03-23T02:06:55.041Z,6.49
2019-03-23T02:09:30.292Z,6.52
2019-03-23T02:12:02.202Z,6.40
2019-03-23T02:14:34.734Z,6.38
2019-03-23T02:17:06.569Z,6.38
2019-03-23T02:19:37.099Z,6.29
2019-03-23T02:22:07.913Z,6.28
2019-03-23T02:24:38.410Z,6.25
2019-03-23T02:27:09.485Z,6.31
2019-03-23T02:29:39.501Z,6.28
2019-03-23T02:32:10.809Z,6.40
2019-03-23T02:34:41.085Z,6.40
2019-03-23T02:37:12.114Z,6.34
2019-03-23T02:39:43.709Z,6.24
2019-03-23T02:42:16.508Z,6.35
2019-03-23T02:44:47.714Z,6.58
2019-03-23T02:47:17.826Z,6.65
2019-03-23T02:49:48.670Z,6.45
2019-03-23T02:52:19.470Z,6.58
2019-03-23T02:54:50.052Z,6.61
2019-03-23T02:57:21.458Z,6.74
2019-03-23T02:59:52.793Z,6.75
2019-03-23T03:02:24.205Z,6.69
2019-03-23T03:04:54.727Z,6.62
2019-03-23T03:07:40.773Z,6.53
2019-03-23T03:09:58.975Z,6.43
2019-03-23T03:12:30.261Z,6.40
2019-03-23T03:15:03.153Z,6.28
2019-03-23T03:17:34.481Z,6.21
2019-03-23T03:20:06.931Z,6.35
2019-03-23T03:22:38.091Z,6.46
2019-03-23T03:25:09.163Z,6.52
2019-03-23T03:27:40.452Z,6.51
2019-03-23T03:30:12.939Z,6.62
2019-03-23T03:32:43.408Z,6.45
2019-03-23T03:35:14.598Z,6.12
2019-03-23T03:37:56.554Z,5.89
2019-03-23T03:40:19.669Z,6.04
2019-03-23T03:42:50.330Z,5.94
2019-03-23T03:45:25.718Z,5.99
2019-03-23T03:47:56.250Z,5.69
2019-03-23T03:50:26.547Z,5.71
2019-03-23T03:52:56.621Z,5.82
2019-03-23T03:55:26.743Z,5.69
2019-03-23T03:57:56.738Z,5.55
2019-03-23T04:00:26.840Z,5.42
2019-03-23T04:02:57.068Z,5.37
2019-03-23T04:05:27.165Z,5.29
2019-03-23T04:08:10.470Z,5.39
2019-03-23T04:10:29.145Z,5.24
2019-03-23T04:12:59.688Z,5.24
2019-03-23T04:15:29.899Z,5.24
2019-03-23T04:18:00.247Z,5.20
2019-03-23T04:20:30.433Z,5.26
2019-03-23T04:23:00.624Z,5.25
2019-03-23T04:25:30.701Z,5.28
2019-03-23T04:28:01.135Z,5.27
2019-03-23T04:30:33.225Z,5.23
2019-03-23T04:33:03.269Z,5.27
2019-03-23T04:35:36.424Z,5.34
2019-03-23T04:38:06.603Z,5.39
2019-03-23T04:40:36.708Z,5.52
2019-03-23T04:43:06.866Z,5.74
2019-03-23T04:45:39.732Z,5.82
2019-03-23T04:48:09.822Z,5.76
2019-03-23T04:50:39.983Z,5.87
2019-03-23T04:53:10.300Z,5.67
2019-03-23T04:55:44.279Z,5.86
2019-03-23T04:58:14.358Z,6.02
2019-03-23T05:00:44.598Z,6.11
2019-03-23T05:03:14.731Z,6.29
2019-03-23T05:05:44.861Z,6.38
2019-03-23T05:08:14.943Z,6.41
2019-03-23T05:10:45.171Z,6.52
2019-03-23T05:13:15.356Z,6.60
2019-03-23T05:15:45.397Z,6.61
2019-03-23T05:18:15.526Z,6.62
2019-03-23T05:20:45.827Z,6.72
2019-03-23T05:23:16.008Z,6.78
2019-03-23T05:25:46.014Z,6.87
2019-03-23T05:28:16.250Z,7.04
2019-03-23T05:30:46.620Z,7.13
2019-03-23T05:33:16.804Z,7.25
2019-03-23T05:35:47.140Z,7.32
2019-03-23T05:38:17.431Z,7.46
2019-03-23T05:40:47.708Z,7.59
2019-03-23T05:43:17.972Z,7.36
2019-03-23T05:45:50.259Z,7.50
2019-03-23T05:48:20.612Z,7.63
2019-03-23T05:50:50.792Z,7.65
2019-03-23T05:53:20.980Z,7.66
2019-03-23T05:55:51.236Z,7.69
2019-03-23T05:58:21.504Z,7.93
2019-03-23T06:00:54.549Z,8.30
2019-03-23T06:03:25.470Z,8.11
2019-03-23T06:05:58.541Z,9.00
2019-03-23T06:08:28.709Z,9.00
2019-03-23T06:10:58.993Z,9.52
2019-03-23T06:13:30.254Z,9.74
2019-03-23T06:16:00.945Z,10.24
2019-03-23T06:18:31.113Z,10.31
2019-03-23T06:21:01.246Z,10.68
2019-03-23T06:23:31.321Z,10.98
2019-03-23T06:26:02.068Z,11.54
2019-03-23T06:28:32.200Z,11.77
2019-03-23T06:31:03.735Z,12.22
2019-03-23T06:33:34.327Z,12.93
2019-03-23T06:36:04.600Z,14.36
2019-03-23T06:38:37.231Z,15.79
2019-03-23T06:41:07.343Z,17.28
2019-03-23T06:43:37.626Z,18.84
2019-03-23T06:46:07.822Z,19.83
2019-03-23T06:48:37.854Z,21.78
2019-03-23T06:51:07.934Z,22.84
2019-03-23T06:53:38.136Z,25.47
2019-03-23T06:56:09.131Z,26.90
2019-03-23T06:58:39.303Z,28.52
2019-03-23T07:01:09.926Z,29.38
2019-03-23T07:03:40.103Z,29.48
2019-03-23T07:06:10.346Z,28.36
2019-03-23T07:08:40.529Z,29.45
2019-03-23T07:11:10.850Z,30.65
2019-03-23T07:13:41.680Z,32.32
2019-03-23T07:16:13.114Z,33.00
2019-03-23T07:18:43.185Z,33.59
2019-03-23T07:21:13.204Z,34.15
2019-03-23T07:23:43.289Z,34.68
2019-03-23T07:26:13.748Z,35.14
2019-03-23T07:28:44.814Z,35.03
2019-03-23T07:31:15.068Z,34.58
2019-03-23T07:33:47.544Z,35.98
2019-03-23T07:36:18.240Z,36.59
2019-03-23T07:38:50.589Z,36.83
2019-03-23T07:41:24.210Z,36.58
2019-03-23T07:43:54.348Z,35.20
2019-03-23T07:46:25.614Z,37.37
2019-03-23T07:48:55.985Z,38.13
2019-03-23T07:51:28.423Z,38.72
2019-03-23T07:54:02.806Z,39.35
2019-03-23T07:56:35.215Z,39.30
2019-03-23T07:59:05.370Z,37.27
2019-03-23T08:01:35.820Z,38.72
2019-03-23T08:04:06.045Z,39.67
2019-03-23T08:06:36.271Z,39.97
2019-03-23T08:09:07.808Z,39.92
2019-03-23T08:11:37.782Z,40.44
2019-03-23T08:14:08.029Z,38.78
2019-03-23T08:16:38.449Z,39.97
2019-03-23T08:19:12.553Z,40.79
2019-03-23T08:21:42.825Z,41.47
2019-03-23T08:24:12.923Z,41.89
2019-03-23T08:26:43.018Z,41.70
2019-03-23T08:29:13.207Z,41.70
2019-03-23T08:31:43.685Z,42.20
2019-03-23T08:34:13.885Z,42.21
2019-03-23T08:36:44.400Z,41.99
2019-03-23T08:39:14.701Z,40.05
2019-03-23T08:41:44.781Z,39.96
2019-03-23T08:44:17.395Z,39.43
2019-03-23T08:46:47.604Z,40.77
2019-03-23T08:49:19.257Z,42.03
2019-03-23T08:51:49.554Z,42.96
2019-03-23T08:54:19.700Z,42.57
2019-03-23T08:56:49.912Z,43.67
2019-03-23T08:59:21.818Z,44.55
2019-03-23T09:01:51.971Z,44.44
2019-03-23T09:04:23.098Z,45.21
2019-03-23T09:06:53.686Z,45.43
2019-03-23T09:09:24.030Z,45.79
2019-03-23T09:11:54.265Z,44.22
2019-03-23T09:14:24.519Z,44.38
2019-03-23T09:16:54.622Z,45.36
2019-03-23T09:19:25.147Z,45.74
2019-03-23T09:21:55.706Z,45.72
2019-03-23T09:24:26.345Z,46.00
2019-03-23T09:26:56.756Z,44.83
2019-03-23T09:29:27.040Z,44.71
2019-03-23T09:31:57.338Z,45.23
2019-03-23T09:34:29.849Z,45.42
2019-03-23T09:37:00.090Z,45.16
2019-03-23T09:39:31.223Z,45.28
2019-03-23T09:42:01.417Z,45.58
2019-03-23T09:44:31.546Z,45.57
2019-03-23T09:47:02.141Z,45.28
2019-03-23T09:49:32.364Z,45.28
2019-03-23T09:52:02.573Z,45.59
2019-03-23T09:54:34.293Z,46.46
2019-03-23T09:57:05.145Z,46.36
2019-03-23T09:59:35.197Z,45.08
2019-03-23T10:02:05.576Z,45.11
2019-03-23T10:04:36.043Z,45.64
2019-03-23T10:07:06.507Z,46.29
2019-03-23T10:09:36.741Z,46.10
2019-03-23T10:12:09.109Z,46.10
2019-03-23T10:14:39.246Z,46.33
2019-03-23T10:17:09.505Z,42.61
2019-03-23T10:19:41.787Z,43.27
2019-03-23T10:22:12.018Z,42.43
2019-03-23T10:24:42.235Z,42.07
2019-03-23T10:27:13.127Z,41.44
2019-03-23T10:29:43.806Z,42.09
2019-03-23T10:32:14.085Z,43.13
2019-03-23T10:34:44.317Z,43.03
2019-03-23T10:37:14.601Z,42.23
2019-03-23T10:39:46.875Z,43.31
2019-03-23T10:42:17.430Z,44.07
2019-03-23T10:44:47.640Z,44.74
2019-03-23T10:47:17.798Z,45.59
2019-03-23T10:49:47.860Z,45.91
2019-03-23T10:52:23.720Z,46.27
2019-03-23T10:54:54.468Z,45.74
2019-03-23T10:57:24.673Z,43.95
2019-03-23T10:59:54.880Z,43.36
2019-03-23T11:02:25.026Z,41.43
2019-03-23T11:04:55.063Z,42.77
2019-03-23T11:07:25.308Z,42.39
2019-03-23T11:09:55.511Z,39.82
2019-03-23T11:12:26.238Z,41.37
2019-03-23T11:14:57.100Z,41.73
2019-03-23T11:17:27.669Z,41.27
2019-03-23T11:20:00.039Z,40.76
2019-03-23T11:22:30.224Z,37.27
2019-03-23T11:25:00.446Z,37.31
2019-03-23T11:27:30.623Z,37.46
2019-03-23T11:30:00.733Z,36.78
2019-03-23T11:32:30.930Z,35.43
2019-03-23T11:35:01.052Z,34.09
2019-03-23T11:37:31.491Z,33.72
2019-03-23T11:40:01.631Z,33.15
2019-03-23T11:42:31.823Z,32.34
2019-03-23T11:45:02.162Z,31.25
2019-03-23T11:47:32.396Z,30.74
2019-03-23T11:50:02.625Z,30.32
2019-03-23T11:52:32.885Z,29.84
2019-03-23T11:55:03.110Z,28.98
2019-03-23T11:57:33.602Z,28.70
2019-03-23T12:00:03.751Z,28.41
2019-03-23T12:02:34.118Z,27.70
2019-03-23T12:05:05.060Z,27.53
2019-03-23T12:07:35.280Z,27.39
2019-03-23T12:10:07.352Z,27.18
2019-03-23T12:12:38.021Z,26.65
2019-03-23T12:15:08.848Z,26.52
2019-03-23T12:17:39.160Z,26.42
2019-03-23T12:20:11.162Z,26.21
2019-03-23T12:22:42.029Z,26.28
2019-03-23T12:25:14.596Z,26.36
2019-03-23T12:27:44.846Z,26.43
2019-03-23T12:30:16.714Z,26.01
2019-03-23T12:32:46.971Z,26.10
2019-03-23T12:35:17.423Z,26.20
2019-03-23T12:37:47.750Z,26.24
2019-03-23T12:40:19.979Z,25.98
2019-03-23T12:42:50.876Z,25.81
2019-03-23T12:45:20.984Z,25.71
2019-03-23T12:47:51.901Z,25.36
2019-03-23T12:50:22.078Z,25.14
2019-03-23T12:52:52.196Z,24.77
2019-03-23T12:55:24.639Z,24.56
2019-03-23T12:57:55.140Z,24.07
2019-03-23T13:00:25.302Z,24.00
2019-03-23T13:02:56.485Z,23.99
2019-03-23T13:05:26.658Z,24.03
2019-03-23T13:07:58.326Z,24.10
2019-03-23T13:10:32.210Z,24.01
2019-03-23T13:13:03.136Z,24.19
2019-03-23T13:15:34.506Z,24.15
2019-03-23T13:18:04.685Z,23.93
2019-03-23T13:20:36.453Z,23.66
2019-03-23T13:23:06.937Z,23.73
2019-03-23T13:25:37.161Z,23.43
2019-03-23T13:28:07.390Z,23.22
2019-03-23T13:30:39.294Z,23.30
2019-03-23T13:33:10.128Z,23.32
2019-03-23T13:35:40.198Z,23.06
2019-03-23T13:38:10.536Z,22.89
2019-03-23T13:40:40.665Z,22.87
2019-03-23T13:43:11.736Z,22.72
2019-03-23T13:45:42.834Z,22.46
2019-03-23T13:48:13.794Z,22.23
2019-03-23T13:50:45.887Z,22.32
2019-03-23T13:53:16.249Z,22.23
2019-03-23T13:55:46.278Z,22.24
2019-03-23T13:58:16.668Z,22.15
2019-03-23T14:00:48.225Z,22.07
2019-03-23T14:03:19.657Z,21.94
2019-03-23T14:05:50.048Z,21.85
2019-03-23T14:08:22.237Z,21.71
2019-03-23T14:10:52.432Z,21.79
2019-03-23T14:13:24.098Z,21.42
2019-03-23T14:15:55.498Z,21.21
2019-03-23T14:18:26.256Z,21.18
2019-03-23T14:20:56.646Z,21.11
2019-03-23T14:23:29.292Z,20.98
2019-03-23T14:26:00.977Z,20.97
2019-03-23T14:28:31.510Z,21.08
2019-03-23T14:31:02.916Z,21.05
2019-03-23T14:33:33.192Z,21.04
2019-03-23T14:36:03.597Z,21.04
2019-03-23T14:38:36.355Z,20.98
2019-03-23T14:41:06.612Z,21.12
2019-03-23T14:43:36.984Z,21.24
2019-03-23T14:46:10.600Z,21.20
2019-03-23T14:48:42.606Z,21.21
2019-03-23T14:51:16.101Z,21.19
2019-03-23T14:53:46.722Z,21.08
2019-03-23T14:56:17.135Z,21.06
2019-03-23T14:58:47.590Z,20.85
2019-03-23T15:01:17.707Z,20.66
2019-03-23T15:03:48.072Z,20.58
2019-03-23T15:06:18.131Z,20.58
2019-03-23T15:08:50.378Z,20.47
2019-03-23T15:11:20.553Z,20.31
2019-03-23T15:13:51.503Z,20.24
2019-03-23T15:16:22.036Z,20.09
2019-03-23T15:18:52.652Z,19.99
2019-03-23T15:21:23.340Z,19.94
2019-03-23T15:23:53.864Z,19.81
2019-03-23T15:26:24.209Z,19.72
2019-03-23T15:28:54.938Z,19.66
2019-03-23T15:31:26.760Z,19.64
2019-03-23T15:33:57.023Z,19.60
2019-03-23T15:36:27.273Z,19.61
2019-03-23T15:38:57.830Z,19.53
2019-03-23T15:41:28.005Z,19.49
2019-03-23T15:43:58.049Z,19.43
2019-03-23T15:46:28.383Z,19.37
2019-03-23T15:48:58.770Z,19.33
2019-03-23T15:51:29.306Z,19.25
2019-03-23T15:54:01.948Z,19.25
2019-03-23T15:56:32.467Z,19.23
2019-03-23T15:59:05.196Z,19.14
2019-03-23T16:01:37.099Z,19.07
2019-03-23T16:04:07.634Z,18.96
2019-03-23T16:06:38.805Z,18.78
2019-03-23T16:09:09.449Z,18.66
2019-03-23T16:11:41.529Z,18.44
2019-03-23T16:14:12.724Z,18.28
2019-03-23T16:16:42.924Z,18.15
2019-03-23T16:19:13.490Z,18.16
2019-03-23T16:21:43.837Z,18.18
2019-03-23T16:24:14.287Z,18.16
2019-03-23T16:26:44.500Z,18.09
2019-03-23T16:29:14.776Z,18.07
2019-03-23T16:31:45.067Z,17.97
2019-03-23T16:34:15.140Z,17.89
2019-03-23T16:36:45.373Z,17.87
2019-03-23T16:39:15.796Z,17.78
2019-03-23T16:41:46.152Z,17.71
2019-03-23T16:44:16.465Z,17.62
2019-03-23T16:46:46.683Z,17.62
2019-03-23T16:49:17.501Z,17.53
2019-03-23T16:51:47.881Z,17.48
2019-03-23T16:54:18.021Z,17.44
2019-03-23T16:56:48.196Z,17.41
2019-03-23T16:59:18.490Z,17.36
2019-03-23T17:01:49.168Z,17.25
2019-03-23T17:04:21.302Z,17.16
2019-03-23T17:06:52.649Z,17.08
2019-03-23T17:09:26.374Z,17.00
2019-03-23T17:11:56.818Z,16.92
2019-03-23T17:14:27.043Z,16.83
2019-03-23T17:17:00.382Z,16.74
2019-03-23T17:19:31.117Z,16.63
2019-03-23T17:22:04.075Z,16.60
2019-03-23T17:24:34.140Z,16.53
2019-03-23T17:27:04.786Z,16.43
2019-03-23T17:29:35.208Z,16.37
2019-03-23T17:32:06.052Z,16.33
2019-03-23T17:34:36.260Z,16.27
2019-03-23T17:37:06.884Z,16.21
2019-03-23T17:39:37.225Z,16.11
2019-03-23T17:42:07.409Z,16.02
2019-03-23T17:44:37.571Z,16.00
2019-03-23T17:47:07.817Z,15.89
2019-03-23T17:49:38.170Z,15.64
2019-03-23T17:52:08.509Z,15.60
2019-03-23T17:54:38.833Z,15.49
2019-03-23T17:57:09.232Z,15.32
2019-03-23T17:59:39.460Z,15.29
2019-03-23T18:02:09.641Z,15.32
2019-03-23T18:04:39.845Z,15.33
2019-03-23T18:07:10.007Z,15.29
2019-03-23T18:09:40.225Z,15.28
2019-03-23T18:12:10.488Z,15.29
2019-03-23T18:14:40.805Z,15.28
2019-03-23T18:17:11.055Z,15.19
2019-03-23T18:19:41.243Z,15.11
2019-03-23T18:22:11.575Z,15.03
2019-03-23T18:24:41.806Z,14.96
2019-03-23T18:27:11.817Z,14.93
2019-03-23T18:29:41.988Z,14.87
2019-03-23T18:32:12.305Z,14.81
2019-03-23T18:34:42.665Z,14.71
2019-03-23T18:37:12.868Z,14.60
2019-03-23T18:39:43.006Z,14.52
2019-03-23T18:42:13.263Z,14.42
2019-03-23T18:44:43.536Z,14.38
2019-03-23T18:47:14.083Z,14.34
2019-03-23T18:49:44.380Z,14.28
2019-03-23T18:52:14.513Z,14.04
2019-03-23T18:54:44.593Z,13.81
2019-03-23T18:57:14.912Z,13.51
2019-03-23T18:59:45.036Z,13.28
2019-03-23T19:02:15.221Z,12.95
2019-03-23T19:04:45.473Z,12.91
2019-03-23T19:07:15.641Z,12.90
2019-03-23T19:09:45.780Z,12.80
2019-03-23T19:12:15.961Z,12.70
2019-03-23T19:14:46.189Z,12.53
2019-03-23T19:17:16.590Z,12.55
2019-03-23T19:19:48.513Z,12.64
2019-03-23T19:22:18.865Z,12.69
2019-03-23T19:24:49.072Z,12.58
2019-03-23T19:27:19.412Z,12.47
2019-03-23T19:29:49.624Z,12.46
2019-03-23T19:32:19.924Z,12.41
2019-03-23T19:34:50.147Z,12.39
2019-03-23T19:37:20.221Z,12.23
2019-03-23T19:39:50.430Z,12.10
2019-03-23T19:42:20.606Z,12.01
2019-03-23T19:44:50.777Z,11.97
2019-03-23T19:47:21.103Z,11.91
2019-03-23T19:49:51.279Z,11.82
2019-03-23T19:52:21.602Z,11.79
2019-03-23T19:54:51.859Z,11.72
2019-03-23T19:57:21.933Z,11.72
2019-03-23T19:59:52.161Z,11.71
2019-03-23T20:02:22.360Z,11.77
2019-03-23T20:04:52.544Z,11.72
2019-03-23T20:07:32.723Z,11.72
2019-03-23T20:09:57.053Z,11.71
2019-03-23T20:12:27.319Z,11.60
2019-03-23T20:14:57.539Z,11.59
2019-03-23T20:17:27.792Z,11.57
2019-03-23T20:19:57.867Z,11.55
2019-03-23T20:22:27.908Z,11.60
2019-03-23T20:24:57.966Z,11.72
2019-03-23T20:27:28.123Z,11.80
2019-03-23T20:29:58.262Z,11.77
2019-03-23T20:32:28.361Z,11.47
2019-03-23T20:34:58.638Z,11.48
2019-03-23T20:37:29.556Z,11.48
2019-03-23T20:39:59.733Z,11.33
2019-03-23T20:42:29.993Z,11.29
2019-03-23T20:45:00.310Z,11.28
2019-03-23T20:47:30.411Z,11.25
2019-03-23T20:50:00.553Z,11.19
2019-03-23T20:52:30.615Z,11.19
2019-03-23T20:55:00.791Z,11.17
2019-03-23T20:57:37.446Z,11.10
2019-03-23T21:00:03.073Z,11.16
2019-03-23T21:02:33.368Z,11.24
2019-03-23T21:05:03.700Z,11.20
2019-03-23T21:07:33.784Z,11.06
2019-03-23T21:10:04.091Z,11.02
2019-03-23T21:12:34.159Z,10.99
2019-03-23T21:15:04.360Z,10.93
2019-03-23T21:17:34.590Z,10.95
2019-03-23T21:20:06.438Z,10.92
2019-03-23T21:22:36.660Z,10.80
2019-03-23T21:25:07.433Z,10.76
2019-03-23T21:27:37.712Z,10.76
2019-03-23T21:30:09.938Z,10.72
2019-03-23T21:32:40.078Z,10.66
2019-03-23T21:35:10.465Z,10.53
2019-03-23T21:37:40.797Z,10.55
2019-03-23T21:40:11.994Z,10.52
2019-03-23T21:42:42.198Z,10.48
2019-03-23T21:45:12.574Z,10.51
2019-03-23T21:47:42.773Z,10.60
2019-03-23T21:50:13.349Z,10.58
2019-03-23T21:52:43.496Z,10.45
2019-03-23T21:55:14.810Z,10.48
2019-03-23T21:57:44.906Z,10.63
2019-03-23T22:00:19.752Z,10.78
2019-03-23T22:02:50.034Z,10.72
2019-03-23T22:05:20.182Z,10.54
2019-03-23T22:07:50.368Z,10.38
2019-03-23T22:10:20.600Z,10.36
2019-03-23T22:12:50.856Z,10.32
2019-03-23T22:15:21.243Z,10.35
2019-03-23T22:17:53.190Z,10.43
2019-03-23T22:20:23.356Z,10.43
2019-03-23T22:22:53.488Z,10.52
2019-03-23T22:25:23.732Z,10.56
2019-03-23T22:27:53.869Z,10.62
2019-03-23T22:30:24.100Z,10.66
2019-03-23T22:32:54.344Z,10.68
2019-03-23T22:35:24.439Z,10.71
2019-03-23T22:37:54.652Z,10.68
2019-03-23T22:40:24.796Z,10.60
2019-03-23T22:42:55.142Z,10.63
2019-03-23T22:45:25.427Z,10.59
2019-03-23T22:47:55.473Z,10.68
2019-03-23T22:50:25.609Z,10.79
2019-03-23T22:52:55.878Z,10.65
2019-03-23T22:55:26.127Z,10.56
2019-03-23T22:57:56.735Z,10.59
2019-03-23T23:00:42.429Z,10.67
2019-03-23T23:03:13.249Z,10.62
2019-03-23T23:05:43.914Z,10.54
2019-03-23T23:08:14.074Z,10.58
2019-03-23T23:10:44.320Z,10.61
2019-03-23T23:13:14.473Z,10.56
2019-03-23T23:15:44.836Z,10.52
2019-03-23T23:18:15.071Z,10.53
2019-03-23T23:20:45.406Z,10.52
2019-03-23T23:23:15.641Z,10.51
2019-03-23T23:25:45.933Z,10.52
2019-03-23T23:28:15.981Z,10.53
2019-03-23T23:30:46.143Z,10.48
2019-03-23T23:33:16.398Z,10.45
2019-03-23T23:35:46.698Z,10.41
2019-03-23T23:38:18.557Z,10.39
2019-03-23T23:40:48.692Z,10.36
2019-03-23T23:43:18.670Z,10.34
2019-03-23T23:45:48.933Z,10.22
2019-03-23T23:48:19.230Z,10.15
2019-03-23T23:50:49.544Z,10.05
2019-03-23T23:53:19.726Z,9.84
2019-03-23T23:55:49.922Z,9.71
2019-03-23T23:58:20.062Z,9.62
